Time;durP1;ratioP1;P1;durP2;ratioP2;P2;SDS_P1;SDS_P2;PMS_P1;PMS_P2;Temp;Humidity;BMP_temperature;BMP_pressure;BME280_temperature;BME280_humidity;BME280_pressure;Samples;Min_cycle;Max_cycle;Signal;HPM_P1;HPM_P2
2022/11/15 00:00:56;;;;;;;97.68;43.42;;;;;;;;;;4969098;28;20039;-78
2022/11/15 00:03:23;;;;;;;92.63;41.00;;;;;;;;;;4973613;28;20049;-77
2022/11/15 00:05:48;;;;;;;100.38;45.03;;;;;;;;;;4967279;28;20038;-78
2022/11/15 00:08:13;;;;;;;97.20;43.63;;;;;;;;;;4971463;28;20089;-78
2022/11/15 00:10:39;;;;;;;105.50;46.42;;;;;;;;;;4958788;28;20042;-78
2022/11/15 00:13:06;;;;;;;100.18;46.55;;;;;;;;;;4957726;28;20575;-77
2022/11/15 00:15:34;;;;;;;94.90;44.92;;;;;;;;;;4966471;28;20050;-77
2022/11/15 00:18:00;;;;;;;99.32;47.88;;;;;;;;;;4973774;28;20048;-78
2022/11/15 00:20:26;;;;;;;100.60;44.47;;;;;;;;;;4974376;28;20042;-77
2022/11/15 00:22:51;;;;;;;104.05;47.92;;;;;;;;;;4973391;28;20400;-77
2022/11/15 00:25:16;;;;;;;99.25;45.30;;;;;;;;;;4974532;28;20038;-78
2022/11/15 00:27:45;;;;;;;106.18;44.80;;;;;;;;;;4972478;28;20334;-78
2022/11/15 00:30:10;;;;;;;102.07;46.90;;;;;;;;;;4971905;28;20038;-77
2022/11/15 00:32:36;;;;;;;112.45;47.78;;;;;;;;;;4971860;28;20058;-77
2022/11/15 00:35:02;;;;;;;98.03;42.83;;;;;;;;;;4961166;28;20191;-77
2022/11/15 00:37:28;;;;;;;103.45;46.30;;;;;;;;;;4946002;28;20068;-77
2022/11/15 00:39:56;;;;;;;104.38;43.67;;;;;;;;;;4972955;28;20033;-77
2022/11/15 00:42:24;;;;;;;95.63;42.03;;;;;;;;;;4973721;28;20148;-78
2022/11/15 00:44:49;;;;;;;98.38;44.03;;;;;;;;;;4973374;28;20186;-78
2022/11/15 00:47:15;;;;;;;99.45;45.50;;;;;;;;;;4969770;28;20103;-79
2022/11/15 00:49:41;;;;;;;109.50;46.33;;;;;;;;;;4956528;28;20061;-78
2022/11/15 00:52:07;;;;;;;107.20;47.50;;;;;;;;;;4968629;28;20042;-77
2022/11/15 00:54:32;;;;;;;107.47;48.17;;;;;;;;;;4972033;28;20392;-77
2022/11/15 00:57:00;;;;;;;113.78;49.58;;;;;;;;;;4989931;28;20155;-78
2022/11/15 00:59:28;;;;;;;109.65;47.17;;;;;;;;;;4977970;28;20084;-77
2022/11/15 01:01:54;;;;;;;114.28;49.03;;;;;;;;;;4946119;28;20046;-77
2022/11/15 01:04:19;;;;;;;128.95;49.97;;;;;;;;;;4968749;28;20069;-77
2022/11/15 01:06:47;;;;;;;114.00;47.20;;;;;;;;;;4964421;28;20099;-77
2022/11/15 01:09:15;;;;;;;124.55;47.70;;;;;;;;;;4966768;28;20612;-78
2022/11/15 01:11:40;;;;;;;123.43;47.15;;;;;;;;;;4989196;28;20684;-77
2022/11/15 01:14:07;;;;;;;119.13;49.00;;;;;;;;;;4990035;28;20133;-78
2022/11/15 01:16:33;;;;;;;133.88;54.05;;;;;;;;;;4970993;28;20067;-78
2022/11/15 01:18:58;;;;;;;122.03;48.10;;;;;;;;;;4975021;28;20092;-77
2022/11/15 01:21:24;;;;;;;114.68;47.45;;;;;;;;;;4981591;28;20860;-78
2022/11/15 01:23:52;;;;;;;119.82;48.70;;;;;;;;;;4990703;28;20577;-78
2022/11/15 01:26:18;;;;;;;131.20;48.10;;;;;;;;;;4973204;28;20268;-77
2022/11/15 01:28:43;;;;;;;132.75;50.67;;;;;;;;;;4980977;28;20066;-78
2022/11/15 01:31:13;;;;;;;127.75;50.85;;;;;;;;;;4976503;28;20769;-78
2022/11/15 01:33:38;;;;;;;132.30;53.35;;;;;;;;;;4989066;28;20046;-79
2022/11/15 01:36:06;;;;;;;132.55;53.40;;;;;;;;;;4969509;28;20221;-79
2022/11/15 01:38:32;;;;;;;130.13;52.45;;;;;;;;;;4990457;28;20034;-78
2022/11/15 01:40:58;;;;;;;134.23;54.38;;;;;;;;;;4988164;28;20049;-78
2022/11/15 01:43:31;;;;;;;137.27;55.63;;;;;;;;;;4991751;28;20034;-77
2022/11/15 01:46:00;;;;;;;127.10;53.60;;;;;;;;;;4971026;28;20041;-76
2022/11/15 01:48:29;;;;;;;134.27;52.42;;;;;;;;;;4987038;28;20038;-79
2022/11/15 01:50:57;;;;;;;142.77;53.80;;;;;;;;;;4947355;28;20129;-77
2022/11/15 01:53:23;;;;;;;150.88;56.10;;;;;;;;;;4976331;28;20030;-78
2022/11/15 01:55:49;;;;;;;144.32;55.72;;;;;;;;;;4991995;28;20046;-78
2022/11/15 01:58:14;;;;;;;130.10;55.75;;;;;;;;;;4976792;28;20038;-78
2022/11/15 02:00:40;;;;;;;143.52;60.42;;;;;;;;;;4991291;28;20065;-78
2022/11/15 02:03:09;;;;;;;142.68;58.65;;;;;;;;;;4987043;28;20053;-78
2022/11/15 02:05:35;;;;;;;135.68;56.33;;;;;;;;;;4990505;28;21110;-78
2022/11/15 02:08:03;;;;;;;156.65;61.28;;;;;;;;;;4991369;28;20118;-77
2022/11/15 02:10:28;;;;;;;146.40;53.70;;;;;;;;;;4987383;28;20046;-77
2022/11/15 02:12:57;;;;;;;167.32;61.42;;;;;;;;;;4973624;28;20124;-78
2022/11/15 02:15:26;;;;;;;174.77;60.40;;;;;;;;;;4983604;28;20054;-79
2022/11/15 02:18:04;;;;;;;170.45;63.72;;;;;;;;;;4980565;28;20053;-78
2022/11/15 02:20:46;;;;;;;163.40;60.85;;;;;;;;;;4976928;28;20080;-78
2022/11/15 02:23:27;;;;;;;167.75;63.67;;;;;;;;;;4990984;28;20533;-76
2022/11/15 02:26:11;;;;;;;166.77;66.35;;;;;;;;;;4992815;28;20030;-79
2022/11/15 02:28:57;;;;;;;173.48;62.85;;;;;;;;;;4992781;28;20045;-78
2022/11/15 02:31:41;;;;;;;165.60;60.08;;;;;;;;;;4990994;28;20566;-78
2022/11/15 02:34:19;;;;;;;195.45;61.25;;;;;;;;;;4991992;28;20226;-78
2022/11/15 02:36:48;;;;;;;181.00;60.83;;;;;;;;;;4967025;28;20632;-77
2022/11/15 02:39:28;;;;;;;178.85;67.05;;;;;;;;;;4977741;28;20034;-78
2022/11/15 02:41:57;;;;;;;173.20;63.08;;;;;;;;;;4987586;28;20125;-78
2022/11/15 02:44:25;;;;;;;193.23;67.53;;;;;;;;;;4992621;28;20046;-78
2022/11/15 02:47:14;;;;;;;168.10;62.38;;;;;;;;;;4969638;28;20034;-79
2022/11/15 02:49:55;;;;;;;182.77;68.97;;;;;;;;;;4978479;28;20132;-78
2022/11/15 02:52:26;;;;;;;181.95;65.15;;;;;;;;;;4981960;28;20511;-78
2022/11/15 02:55:01;;;;;;;167.73;65.55;;;;;;;;;;4977113;28;20041;-77
2022/11/15 02:57:45;;;;;;;178.80;68.50;;;;;;;;;;4979941;28;20049;-78
2022/11/15 03:00:14;;;;;;;207.50;71.53;;;;;;;;;;4977191;28;20523;-76
2022/11/15 03:02:42;;;;;;;176.85;67.32;;;;;;;;;;4959957;28;20041;-78
2022/11/15 03:05:26;;;;;;;192.55;69.13;;;;;;;;;;4964395;28;20042;-78
2022/11/15 03:07:54;;;;;;;205.95;66.10;;;;;;;;;;4960139;28;20176;-77
2022/11/15 03:10:26;;;;;;;162.10;57.22;;;;;;;;;;4954762;28;20038;-78
2022/11/15 03:13:05;;;;;;;186.00;66.57;;;;;;;;;;4959952;28;20530;-76
2022/11/15 03:15:54;;;;;;;205.13;72.45;;;;;;;;;;4964078;28;20296;-78
2022/11/15 03:18:22;;;;;;;183.88;67.78;;;;;;;;;;4963404;28;20223;-78
2022/11/15 03:20:49;;;;;;;203.27;69.13;;;;;;;;;;4964540;28;20034;-78
2022/11/15 03:23:16;;;;;;;198.60;73.57;;;;;;;;;;4963980;28;20038;-78
2022/11/15 03:25:43;;;;;;;208.38;71.90;;;;;;;;;;4959814;28;20038;-78
2022/11/15 03:28:10;;;;;;;271.40;82.97;;;;;;;;;;4917449;28;20042;-78
2022/11/15 03:30:37;;;;;;;187.02;68.18;;;;;;;;;;4943927;28;20592;-78
2022/11/15 03:33:03;;;;;;;235.77;75.70;;;;;;;;;;4957520;28;20038;-80
2022/11/15 03:35:35;;;;;;;209.15;62.88;;;;;;;;;;4969011;28;20037;-78
2022/11/15 03:38:20;;;;;;;245.75;89.22;;;;;;;;;;4962679;28;20053;-79
2022/11/15 03:40:49;;;;;;;214.52;76.68;;;;;;;;;;4965157;28;20119;-78
2022/11/15 03:43:33;;;;;;;175.32;68.15;;;;;;;;;;4930215;28;20236;-76
2022/11/15 03:46:09;;;;;;;218.65;69.35;;;;;;;;;;4959312;28;20050;-77
2022/11/15 03:48:37;;;;;;;182.90;73.70;;;;;;;;;;4960859;28;20144;-77
2022/11/15 03:51:06;;;;;;;184.90;65.65;;;;;;;;;;4939828;28;20046;-76
2022/11/15 03:53:32;;;;;;;191.73;66.72;;;;;;;;;;4931386;28;20083;-77
2022/11/15 03:55:58;;;;;;;203.38;66.40;;;;;;;;;;4937868;28;20053;-78
2022/11/15 03:58:29;;;;;;;196.07;68.90;;;;;;;;;;4937619;28;20362;-77
2022/11/15 04:01:04;;;;;;;169.27;64.32;;;;;;;;;;4931992;28;20960;-77
2022/11/15 04:03:30;;;;;;;172.57;61.35;;;;;;;;;;4943490;28;20541;-77
2022/11/15 04:05:58;;;;;;;205.23;71.70;;;;;;;;;;4929090;28;20050;-77
2022/11/15 04:08:24;;;;;;;173.25;61.65;;;;;;;;;;4931151;28;20200;-77
2022/11/15 04:10:50;;;;;;;168.07;60.65;;;;;;;;;;4930861;28;20077;-77
2022/11/15 04:13:15;;;;;;;169.55;59.95;;;;;;;;;;4938618;28;20038;-77
2022/11/15 04:15:41;;;;;;;182.43;63.15;;;;;;;;;;4940293;28;20074;-78
2022/11/15 04:18:06;;;;;;;174.70;61.08;;;;;;;;;;4918713;28;20348;-77
2022/11/15 04:26:09;;;;;;;154.02;58.28;;;;;;;;;;4954276;28;20045;-79
2022/11/15 04:31:21;;;;;;;172.18;62.97;;;;;;;;;;4939870;28;20038;-78
2022/11/15 04:33:46;;;;;;;200.07;78.78;;;;;;;;;;4973114;28;20034;-79
2022/11/15 04:38:58;;;;;;;450.98;317.73;;;;;;;;;;4956189;28;20093;-79
2022/11/15 04:41:24;;;;;;;387.95;320.25;;;;;;;;;;4961106;28;20404;-79
2022/11/15 04:43:50;;;;;;;303.67;229.57;;;;;;;;;;4928496;28;20030;-78
2022/11/15 04:46:15;;;;;;;259.75;186.85;;;;;;;;;;4938155;28;20047;-79
2022/11/15 04:48:41;;;;;;;220.70;141.18;;;;;;;;;;4912043;28;20347;-78
2022/11/15 04:51:06;;;;;;;205.13;115.72;;;;;;;;;;4927583;28;21910;-78
2022/11/15 04:53:32;;;;;;;200.82;135.57;;;;;;;;;;4941222;28;20207;-78
2022/11/15 04:55:57;;;;;;;242.68;174.48;;;;;;;;;;4952256;28;20055;-79
2022/11/15 04:58:23;;;;;;;255.57;195.27;;;;;;;;;;4973523;28;20041;-77
2022/11/15 05:00:49;;;;;;;214.23;147.35;;;;;;;;;;4965094;28;20130;-79
2022/11/15 05:06:01;;;;;;;206.80;129.85;;;;;;;;;;4964660;28;21234;-79
2022/11/15 05:08:27;;;;;;;227.15;147.48;;;;;;;;;;4960187;28;20046;-79
2022/11/15 05:10:56;;;;;;;256.48;184.20;;;;;;;;;;4947711;28;20060;-77
2022/11/15 05:13:31;;;;;;;220.23;132.73;;;;;;;;;;4951284;28;20042;-77
2022/11/15 05:15:56;;;;;;;210.20;136.75;;;;;;;;;;4951616;28;20061;-79
2022/11/15 05:18:22;;;;;;;202.00;132.20;;;;;;;;;;4938360;28;20034;-77
2022/11/15 05:20:47;;;;;;;237.25;154.02;;;;;;;;;;4935824;28;20481;-79
2022/11/15 05:23:13;;;;;;;223.75;143.82;;;;;;;;;;4928779;28;20042;-79
2022/11/15 05:25:41;;;;;;;200.10;124.47;;;;;;;;;;4896908;28;21862;-77
2022/11/15 05:28:07;;;;;;;201.50;106.75;;;;;;;;;;4942242;28;20042;-79
2022/11/15 05:30:35;;;;;;;205.50;106.35;;;;;;;;;;4939042;28;20483;-79
2022/11/15 05:33:03;;;;;;;190.15;99.53;;;;;;;;;;4942009;28;20515;-78
2022/11/15 05:35:35;;;;;;;211.63;109.53;;;;;;;;;;4920923;28;20533;-78
2022/11/15 05:38:01;;;;;;;225.68;114.22;;;;;;;;;;4925191;28;20137;-78
2022/11/15 05:40:27;;;;;;;181.57;99.53;;;;;;;;;;4941983;28;20046;-78
2022/11/15 05:42:56;;;;;;;173.50;92.28;;;;;;;;;;4911300;28;20037;-77
2022/11/15 05:45:24;;;;;;;165.40;91.57;;;;;;;;;;4911177;28;20621;-77
2022/11/15 05:47:56;;;;;;;163.63;89.60;;;;;;;;;;4936061;28;20045;-77
2022/11/15 05:50:24;;;;;;;117.75;59.08;;;;;;;;;;4891183;28;20282;-77
2022/11/15 05:52:50;;;;;;;106.78;61.63;;;;;;;;;;4904615;28;20708;-77
2022/11/15 05:55:24;;;;;;;135.57;71.40;;;;;;;;;;4932255;28;20034;-77
2022/11/15 05:57:52;;;;;;;144.23;79.50;;;;;;;;;;4956946;28;20034;-79
2022/11/15 06:00:17;;;;;;;125.85;71.65;;;;;;;;;;4935322;28;21767;-79
2022/11/15 06:02:45;;;;;;;123.50;71.15;;;;;;;;;;4937350;28;20400;-77
2022/11/15 06:05:11;;;;;;;119.97;72.75;;;;;;;;;;4921826;28;20260;-77
2022/11/15 06:07:36;;;;;;;127.70;72.05;;;;;;;;;;4918590;28;20222;-77
2022/11/15 06:10:05;;;;;;;113.30;65.28;;;;;;;;;;4937914;28;20141;-77
2022/11/15 06:12:31;;;;;;;109.70;66.68;;;;;;;;;;4928563;28;20709;-78
2022/11/15 06:15:00;;;;;;;115.15;69.65;;;;;;;;;;4928097;28;20046;-76
2022/11/15 06:17:25;;;;;;;114.95;58.83;;;;;;;;;;4937505;28;20038;-77
2022/11/15 06:19:51;;;;;;;94.70;50.83;;;;;;;;;;4964029;28;20049;-76
2022/11/15 06:22:18;;;;;;;109.53;60.78;;;;;;;;;;4941482;28;20049;-76
2022/11/15 06:24:46;;;;;;;101.70;57.70;;;;;;;;;;4926095;28;20035;-77
2022/11/15 06:27:12;;;;;;;104.95;58.83;;;;;;;;;;4925214;28;20390;-77
2022/11/15 06:29:38;;;;;;;89.07;44.75;;;;;;;;;;4942546;28;20053;-77
2022/11/15 06:32:04;;;;;;;89.78;44.65;;;;;;;;;;4938054;28;20125;-75
2022/11/15 06:34:31;;;;;;;75.53;41.10;;;;;;;;;;4958781;28;20680;-76
2022/11/15 06:36:57;;;;;;;66.18;37.90;;;;;;;;;;4965757;28;20066;-77
2022/11/15 06:39:27;;;;;;;73.22;37.33;;;;;;;;;;4947469;28;20120;-75
2022/11/15 06:41:52;;;;;;;69.95;35.03;;;;;;;;;;4927502;28;20261;-77
2022/11/15 06:44:18;;;;;;;68.97;34.30;;;;;;;;;;4954213;28;20413;-78
2022/11/15 06:46:45;;;;;;;65.10;33.92;;;;;;;;;;4907268;28;20050;-75
2022/11/15 06:49:13;;;;;;;59.28;33.00;;;;;;;;;;4942179;28;20043;-75
2022/11/15 06:51:38;;;;;;;61.65;32.53;;;;;;;;;;4956462;28;20049;-78
2022/11/15 06:54:06;;;;;;;59.80;32.72;;;;;;;;;;4970759;28;20353;-76
2022/11/15 06:56:38;;;;;;;59.35;31.52;;;;;;;;;;4985020;28;20040;-78
2022/11/15 06:59:04;;;;;;;64.38;30.90;;;;;;;;;;4981547;28;20102;-75
2022/11/15 07:01:29;;;;;;;59.50;29.92;;;;;;;;;;4962410;28;20061;-75
2022/11/15 07:03:54;;;;;;;58.10;28.60;;;;;;;;;;4965602;28;20042;-77
2022/11/15 07:06:23;;;;;;;51.05;27.05;;;;;;;;;;4927067;28;20557;-77
2022/11/15 07:08:51;;;;;;;45.10;25.73;;;;;;;;;;4962558;28;20422;-77
2022/11/15 07:11:19;;;;;;;52.67;24.33;;;;;;;;;;4986120;28;20368;-78
2022/11/15 07:13:44;;;;;;;44.30;26.70;;;;;;;;;;4967826;28;20531;-75
2022/11/15 07:16:10;;;;;;;44.10;23.60;;;;;;;;;;4966697;28;20104;-77
2022/11/15 07:18:37;;;;;;;44.20;23.67;;;;;;;;;;4978929;28;21035;-77
2022/11/15 07:21:03;;;;;;;38.70;23.05;;;;;;;;;;4986342;28;20029;-77
2022/11/15 07:23:28;;;;;;;45.80;23.30;;;;;;;;;;4984450;28;20037;-77
2022/11/15 07:25:55;;;;;;;34.10;22.58;;;;;;;;;;4969487;28;20597;-77
2022/11/15 07:28:23;;;;;;;40.47;24.08;;;;;;;;;;4963275;28;20033;-77
2022/11/15 07:30:48;;;;;;;44.00;23.33;;;;;;;;;;4961619;28;20558;-77
2022/11/15 07:33:14;;;;;;;45.40;22.98;;;;;;;;;;4975327;28;20072;-76
2022/11/15 07:35:39;;;;;;;41.95;25.45;;;;;;;;;;4969309;28;20416;-76
2022/11/15 07:38:05;;;;;;;51.08;29.25;;;;;;;;;;4938597;28;20041;-77
2022/11/15 07:40:31;;;;;;;37.83;23.45;;;;;;;;;;4951143;28;20034;-76
2022/11/15 07:43:03;;;;;;;37.63;20.60;;;;;;;;;;4940174;28;20038;-75
2022/11/15 07:45:33;;;;;;;35.65;20.15;;;;;;;;;;4956635;28;20159;-75
2022/11/15 07:47:58;;;;;;;35.53;20.77;;;;;;;;;;4961247;28;20038;-76
2022/11/15 07:50:25;;;;;;;34.85;18.90;;;;;;;;;;4964430;28;20052;-76
2022/11/15 07:52:57;;;;;;;32.75;19.40;;;;;;;;;;4959904;28;20137;-76
2022/11/15 07:55:22;;;;;;;;;;;;;;;;;;4943648;28;20046;-76
2022/11/15 07:57:47;;;;;;;32.30;16.80;;;;;;;;;;4965815;28;19913;-76
2022/11/15 08:00:18;;;;;;;29.85;17.23;;;;;;;;;;4927491;28;20303;-76
2022/11/15 08:02:44;;;;;;;31.60;16.20;;;;;;;;;;4990540;28;20061;-76
2022/11/15 08:05:09;;;;;;;31.48;16.33;;;;;;;;;;4968330;28;20041;-76
2022/11/15 08:07:35;;;;;;;26.88;15.73;;;;;;;;;;4991913;28;20033;-77
2022/11/15 08:10:01;;;;;;;28.15;14.93;;;;;;;;;;4973120;28;20044;-76
2022/11/15 08:12:29;;;;;;;26.38;13.70;;;;;;;;;;4966742;28;22879;-74
2022/11/15 08:14:56;;;;;;;29.98;15.18;;;;;;;;;;4924971;28;20050;-75
2022/11/15 08:17:21;;;;;;;27.75;14.18;;;;;;;;;;4967326;28;20132;-77
2022/11/15 08:19:47;;;;;;;26.15;13.65;;;;;;;;;;4992259;28;20494;-77
2022/11/15 08:22:13;;;;;;;28.77;13.18;;;;;;;;;;4958750;28;20109;-77
2022/11/15 08:24:40;;;;;;;24.75;11.48;;;;;;;;;;4981628;28;20045;-75
2022/11/15 08:27:14;;;;;;;25.50;11.98;;;;;;;;;;4976673;28;20030;-76
2022/11/15 08:29:43;;;;;;;20.50;11.02;;;;;;;;;;4984567;28;20664;-76
2022/11/15 08:32:10;;;;;;;19.73;11.25;;;;;;;;;;4967344;28;20348;-76
2022/11/15 08:34:44;;;;;;;21.60;10.48;;;;;;;;;;4982342;28;21018;-76
2022/11/15 08:37:09;;;;;;;24.38;10.65;;;;;;;;;;4949970;28;20041;-76
2022/11/15 08:39:34;;;;;;;21.67;9.98;;;;;;;;;;4965036;28;20284;-76
2022/11/15 08:42:00;;;;;;;19.20;9.88;;;;;;;;;;4968558;28;20041;-77
2022/11/15 08:44:26;;;;;;;19.40;9.82;;;;;;;;;;4998401;28;20567;-76
2022/11/15 08:46:52;;;;;;;23.67;8.73;;;;;;;;;;5001322;28;20069;-77
2022/11/15 08:49:18;;;;;;;22.85;9.20;;;;;;;;;;4985630;28;20298;-77
2022/11/15 08:51:46;;;;;;;16.92;8.50;;;;;;;;;;5004262;28;20052;-77
2022/11/15 08:54:11;;;;;;;16.60;8.23;;;;;;;;;;4977592;28;20091;-77
2022/11/15 08:56:37;;;;;;;13.60;7.72;;;;;;;;;;5002982;28;20038;-76
2022/11/15 08:59:02;;;;;;;17.83;9.15;;;;;;;;;;4978471;28;20130;-77
2022/11/15 09:01:27;;;;;;;16.92;8.00;;;;;;;;;;4998123;28;20243;-77
2022/11/15 09:03:58;;;;;;;16.60;7.75;;;;;;;;;;4998630;28;20046;-77
2022/11/15 09:06:23;;;;;;;16.38;8.25;;;;;;;;;;4996847;28;20338;-77
2022/11/15 09:08:48;;;;;;;16.30;8.00;;;;;;;;;;4999566;28;20526;-77
2022/11/15 09:11:19;;;;;;;24.50;8.35;;;;;;;;;;4987624;28;20433;-78
2022/11/15 09:13:45;;;;;;;13.32;7.07;;;;;;;;;;4998241;28;20442;-77
2022/11/15 09:16:12;;;;;;;15.15;6.75;;;;;;;;;;5001299;28;20042;-77
2022/11/15 09:18:37;;;;;;;14.88;7.47;;;;;;;;;;4975417;28;20038;-77
2022/11/15 09:21:08;;;;;;;17.02;7.93;;;;;;;;;;4997285;28;20513;-79
2022/11/15 09:23:33;;;;;;;16.80;7.70;;;;;;;;;;4988275;28;20069;-77
2022/11/15 09:26:00;;;;;;;16.08;7.13;;;;;;;;;;4997393;28;20132;-77
2022/11/15 09:28:28;;;;;;;14.40;8.20;;;;;;;;;;4972828;28;20119;-79
2022/11/15 09:31:00;;;;;;;18.15;8.48;;;;;;;;;;4986483;28;20051;-77
2022/11/15 09:33:26;;;;;;;13.75;8.90;;;;;;;;;;4983195;28;20037;-76
2022/11/15 09:36:01;;;;;;;19.73;10.30;;;;;;;;;;4990185;28;20042;-77
2022/11/15 09:38:31;;;;;;;16.27;9.48;;;;;;;;;;4987112;28;20390;-76
2022/11/15 09:41:11;;;;;;;18.90;10.38;;;;;;;;;;4985689;28;20124;-76
2022/11/15 09:43:46;;;;;;;17.85;10.57;;;;;;;;;;4947969;28;20042;-75
2022/11/15 09:46:15;;;;;;;17.20;10.55;;;;;;;;;;4983200;28;20402;-76
2022/11/15 09:48:46;;;;;;;18.52;10.93;;;;;;;;;;4989247;28;20095;-78
2022/11/15 09:51:23;;;;;;;17.10;11.07;;;;;;;;;;4986969;28;20046;-76
2022/11/15 09:53:53;;;;;;;20.10;11.35;;;;;;;;;;4991829;28;20117;-76
2022/11/15 09:56:22;;;;;;;17.15;10.80;;;;;;;;;;4989027;28;20037;-74
2022/11/15 09:58:48;;;;;;;20.92;10.40;;;;;;;;;;4992791;28;20033;-75
2022/11/15 10:01:19;;;;;;;20.25;12.02;;;;;;;;;;4972247;28;20406;-75
2022/11/15 10:03:45;;;;;;;26.48;12.10;;;;;;;;;;4984587;28;20498;-76
2022/11/15 10:06:21;;;;;;;22.17;11.98;;;;;;;;;;4988469;28;20065;-75
2022/11/15 10:08:54;;;;;;;26.88;11.73;;;;;;;;;;4991407;28;20302;-75
2022/11/15 10:11:24;;;;;;;21.77;10.45;;;;;;;;;;4989654;28;20054;-74
2022/11/15 10:13:53;;;;;;;19.23;8.98;;;;;;;;;;4956549;28;20076;-75
2022/11/15 10:16:28;;;;;;;17.40;9.10;;;;;;;;;;4958287;28;20590;-75
2022/11/15 10:19:23;;;;;;;16.77;9.02;;;;;;;;;;4954204;28;20121;-75
2022/11/15 10:21:52;;;;;;;10.82;7.68;;;;;;;;;;4963090;28;20042;-75
2022/11/15 10:24:19;;;;;;;17.02;7.90;;;;;;;;;;4971412;28;20385;-76
2022/11/15 10:26:47;;;;;;;13.45;8.20;;;;;;;;;;4969916;28;20170;-77
2022/11/15 10:29:23;;;;;;;14.35;7.68;;;;;;;;;;4968094;28;20433;-74
2022/11/15 10:31:48;;;;;;;14.52;7.90;;;;;;;;;;4969235;28;20045;-76
2022/11/15 10:34:21;;;;;;;15.45;7.80;;;;;;;;;;4970622;28;20042;-77
2022/11/15 10:37:05;;;;;;;14.52;8.13;;;;;;;;;;4965091;28;20038;-77
2022/11/15 10:39:30;;;;;;;13.35;7.55;;;;;;;;;;4951349;28;20313;-77
2022/11/15 10:42:14;;;;;;;11.57;5.90;;;;;;;;;;4969131;28;20403;-76
2022/11/15 10:44:43;;;;;;;15.93;6.10;;;;;;;;;;4971398;28;20503;-76
2022/11/15 10:47:30;;;;;;;12.88;7.70;;;;;;;;;;4967012;28;20034;-76
2022/11/15 10:50:00;;;;;;;12.02;6.80;;;;;;;;;;4950636;28;20385;-75
2022/11/15 10:52:28;;;;;;;13.00;6.07;;;;;;;;;;4966710;28;20494;-76
2022/11/15 10:55:14;;;;;;;16.27;6.63;;;;;;;;;;4983066;28;20081;-77
2022/11/15 10:57:39;;;;;;;15.73;6.97;;;;;;;;;;4939323;28;20633;-76
2022/11/15 11:00:07;;;;;;;16.85;6.90;;;;;;;;;;4967328;28;20092;-75
2022/11/15 11:02:36;;;;;;;13.07;7.53;;;;;;;;;;4942817;28;20475;-74
2022/11/15 11:05:03;;;;;;;13.85;5.97;;;;;;;;;;4976363;28;20336;-75
2022/11/15 11:07:32;;;;;;;15.30;6.72;;;;;;;;;;4953984;28;20592;-76
2022/11/15 11:10:16;;;;;;;10.82;5.75;;;;;;;;;;4964896;28;20034;-75
2022/11/15 11:12:41;;;;;;;12.40;5.35;;;;;;;;;;4944545;28;20148;-75
2022/11/15 11:15:11;;;;;;;12.90;5.82;;;;;;;;;;4939513;28;20127;-77
2022/11/15 11:17:52;;;;;;;17.02;6.55;;;;;;;;;;4943119;28;20037;-76
2022/11/15 11:20:50;;;;;;;18.48;8.00;;;;;;;;;;4949547;28;20135;-75
2022/11/15 11:23:21;;;;;;;17.55;6.50;;;;;;;;;;4928412;28;20543;-75
2022/11/15 11:25:46;;;;;;;11.85;5.78;;;;;;;;;;4978594;28;21856;-75
2022/11/15 11:28:21;;;;;;;11.57;5.22;;;;;;;;;;4971525;28;20034;-75
2022/11/15 11:31:05;;;;;;;10.02;4.63;;;;;;;;;;4967247;28;20750;-76
2022/11/15 11:33:41;;;;;;;15.70;6.97;;;;;;;;;;4945753;28;20634;-75
2022/11/15 11:36:14;;;;;;;14.18;5.05;;;;;;;;;;4969887;28;20084;-77
2022/11/15 11:38:43;;;;;;;15.45;5.85;;;;;;;;;;4970907;28;20048;-77
2022/11/15 11:41:18;;;;;;;11.65;4.95;;;;;;;;;;4951379;28;20177;-78
2022/11/15 11:43:44;;;;;;;15.57;5.28;;;;;;;;;;4947258;28;20038;-78
2022/11/15 11:46:39;;;;;;;12.52;4.57;;;;;;;;;;4964793;28;20034;-76
2022/11/15 11:49:12;;;;;;;9.88;4.40;;;;;;;;;;4882718;28;20031;-76
2022/11/15 11:51:45;;;;;;;11.93;4.82;;;;;;;;;;4974900;28;20053;-77
2022/11/15 11:54:17;;;;;;;19.50;6.13;;;;;;;;;;4974353;28;20038;-77
2022/11/15 11:56:42;;;;;;;;;;;;;;;;;;4976556;28;20265;-78
2022/11/15 11:59:27;;;;;;;12.05;4.60;;;;;;;;;;4961819;28;20354;-77
2022/11/15 12:01:52;;;;;;;15.13;6.28;;;;;;;;;;4972783;28;20031;-76
2022/11/15 12:04:27;;;;;;;14.90;4.60;;;;;;;;;;4978719;28;20100;-77
2022/11/15 12:06:55;;;;;;;8.88;3.65;;;;;;;;;;4978864;28;20487;-77
2022/11/15 12:09:35;;;;;;;9.60;3.70;;;;;;;;;;4978767;28;20036;-77
2022/11/15 12:12:06;;;;;;;14.55;4.80;;;;;;;;;;4979762;28;20037;-76
2022/11/15 12:14:50;;;;;;;12.45;4.97;;;;;;;;;;4985747;28;20038;-76
2022/11/15 12:17:17;;;;;;;18.02;4.85;;;;;;;;;;4957803;28;20542;-76
2022/11/15 12:19:43;;;;;;;13.38;4.70;;;;;;;;;;4980027;28;20104;-77
2022/11/15 12:22:20;;;;;;;14.52;5.03;;;;;;;;;;4961713;28;20048;-76
2022/11/15 12:25:09;;;;;;;9.82;3.90;;;;;;;;;;4972795;28;20030;-77
2022/11/15 12:27:38;;;;;;;14.27;4.15;;;;;;;;;;4973581;28;20437;-77
2022/11/15 12:30:13;;;;;;;10.68;4.18;;;;;;;;;;4972963;28;20033;-75
2022/11/15 12:33:10;;;;;;;14.75;5.03;;;;;;;;;;4950759;28;20038;-75
2022/11/15 12:35:40;;;;;;;14.65;4.75;;;;;;;;;;4936594;28;20570;-77
2022/11/15 12:38:12;;;;;;;21.52;7.93;;;;;;;;;;4966683;28;20044;-75
2022/11/15 12:40:56;;;;;;;17.83;5.68;;;;;;;;;;4968962;28;20421;-74
2022/11/15 12:43:37;;;;;;;16.88;5.60;;;;;;;;;;4970264;28;20034;-75
2022/11/15 12:46:05;;;;;;;13.80;3.80;;;;;;;;;;4969586;28;20234;-74
2022/11/15 12:48:33;;;;;;;8.98;3.72;;;;;;;;;;4969105;28;20038;-74
2022/11/15 12:51:01;;;;;;;11.85;3.60;;;;;;;;;;4969648;28;20460;-74
2022/11/15 12:53:28;;;;;;;11.70;3.35;;;;;;;;;;4946825;28;20050;-73
2022/11/15 12:56:14;;;;;;;11.05;3.47;;;;;;;;;;4968617;28;20169;-75
2022/11/15 12:58:52;;;;;;;13.10;3.70;;;;;;;;;;4970618;28;20041;-77
2022/11/15 13:01:33;;;;;;;12.23;4.80;;;;;;;;;;4983284;28;20786;-77
2022/11/15 13:04:07;;;;;;;12.68;4.60;;;;;;;;;;4971721;28;20139;-75
2022/11/15 13:06:37;;;;;;;14.32;4.95;;;;;;;;;;4970077;28;20044;-76
2022/11/15 13:09:03;;;;;;;14.07;4.18;;;;;;;;;;4972458;28;20458;-74
2022/11/15 13:11:42;;;;;;;13.02;3.78;;;;;;;;;;4968347;28;20022;-74
2022/11/15 13:14:29;;;;;;;13.57;4.50;;;;;;;;;;4968813;28;20208;-74
2022/11/15 13:16:59;;;;;;;12.77;4.50;;;;;;;;;;4967829;28;20135;-72
2022/11/15 13:19:24;;;;;;;11.00;4.22;;;;;;;;;;4962181;28;20026;-76
2022/11/15 13:24:38;;;;;;;15.60;5.30;;;;;;;;;;4975390;28;20037;-76
2022/11/15 13:27:10;;;;;;;16.88;7.05;;;;;;;;;;4950178;28;20034;-75
2022/11/15 13:29:43;;;;;;;13.55;4.70;;;;;;;;;;4967836;28;20549;-74
2022/11/15 13:32:15;;;;;;;12.77;4.07;;;;;;;;;;4965049;28;20049;-75
2022/11/15 13:34:47;;;;;;;14.57;4.28;;;;;;;;;;4961910;28;20582;-74
2022/11/15 13:37:21;;;;;;;;;;;;;;;;;;4939662;28;20346;-74
2022/11/15 13:39:50;;;;;;;12.05;3.75;;;;;;;;;;4957052;28;19964;-74
2022/11/15 13:42:17;;;;;;;12.32;3.17;;;;;;;;;;4931426;28;20376;-73
2022/11/15 13:44:54;;;;;;;9.27;2.60;;;;;;;;;;4957808;28;20034;-74
2022/11/15 13:47:20;;;;;;;11.07;2.97;;;;;;;;;;4949937;28;20038;-75
2022/11/15 13:49:45;;;;;;;10.55;3.05;;;;;;;;;;4946771;28;20153;-76
2022/11/15 13:52:14;;;;;;;12.18;3.67;;;;;;;;;;4967749;28;20554;-75
2022/11/15 13:55:00;;;;;;;14.90;3.67;;;;;;;;;;4968593;28;20360;-75
2022/11/15 13:57:29;;;;;;;12.68;3.42;;;;;;;;;;4966813;28;21752;-75
2022/11/15 14:00:02;;;;;;;13.82;5.13;;;;;;;;;;4948769;28;20081;-75
2022/11/15 14:02:32;;;;;;;10.95;4.28;;;;;;;;;;4937804;28;20192;-77
2022/11/15 14:05:00;;;;;;;16.13;6.07;;;;;;;;;;4967818;28;22386;-76
2022/11/15 14:07:27;;;;;;;8.23;2.80;;;;;;;;;;4951810;28;20034;-76
2022/11/15 14:09:53;;;;;;;10.73;2.30;;;;;;;;;;4948836;28;20312;-74
2022/11/15 14:12:23;;;;;;;10.60;3.05;;;;;;;;;;4927372;28;20061;-78
2022/11/15 14:14:48;;;;;;;13.80;3.90;;;;;;;;;;4963719;28;20050;-75
2022/11/15 14:17:23;;;;;;;10.57;3.63;;;;;;;;;;4968696;28;20115;-74
2022/11/15 14:19:48;;;;;;;;;;;;;;;;;;4953027;28;20620;-76
2022/11/15 14:22:22;;;;;;;10.50;3.95;;;;;;;;;;4966766;28;19913;-76
2022/11/15 14:25:05;;;;;;;10.32;4.00;;;;;;;;;;4964240;28;20570;-74
2022/11/15 14:27:32;;;;;;;8.02;2.50;;;;;;;;;;4950304;28;20060;-82
2022/11/15 14:29:59;;;;;;;9.80;2.53;;;;;;;;;;4970750;28;20406;-75
2022/11/15 14:32:25;;;;;;;12.63;3.30;;;;;;;;;;4966925;28;20041;-76
2022/11/15 14:34:55;;;;;;;8.70;2.35;;;;;;;;;;4967993;28;20422;-76
2022/11/15 14:37:25;;;;;;;14.60;2.42;;;;;;;;;;4968171;28;20275;-76
2022/11/15 14:39:51;;;;;;;10.52;2.95;;;;;;;;;;4968034;28;21184;-76
2022/11/15 14:42:20;;;;;;;9.13;2.05;;;;;;;;;;4953752;28;20469;-75
2022/11/15 14:44:45;;;;;;;11.70;2.38;;;;;;;;;;4966088;28;20516;-77
2022/11/15 14:47:10;;;;;;;13.20;2.30;;;;;;;;;;4932103;28;20286;-75
2022/11/15 14:49:36;;;;;;;11.57;1.88;;;;;;;;;;4959996;28;20124;-77